PWSweather.com
Personal Weather Stations
Station Observations
DEKREUPEL
Wsv De Kreupel, AndijkNL 1619 JV

Wsv De KreupelAndijkNL 1619 JV

Lat: 52.7417364, Lon: 5.1809356

Elevation: 33

Station Type: Rainwise MKiii LR

High Low Average
Temperature 68.7°F20.4°C 63.2°F17.3°C 66.1°F18.9°C
Dew Point 97.6°F36.4°C 91.4°F33.0°C 94.8°F34.9°C
Winds 21.4 mph 34.4 kmh Calm Calm 9.0 mph SSE14.5 kmh SSE
Wind Gusts 24.1 mph38.8 kmh -- 12.0 mph19.3 kmh
Humidity - - -
Pressure 30.20 in1022.7 mb 30.15 in1021.0 mb -
Precipitation 0.00 in0.0 mm - -
Hour Temp Dew Point Humidity Winds Wind Gusts Pressure Precip Precip Rate Daily Precip Total
12:04 AM 63.5°F17.5°C 91.8°F33.2°C - Calm Calm -- 30.20 in1022.7 mb 0.00 in0.0 mm 0.00 in0.0 mm 0.00 in0.0 mm
12:09 AM 63.3°F17.4°C 91.5°F33.1°C - Calm Calm -- 30.20 in1022.7 mb 0.00 in0.0 mm 0.00 in0.0 mm 0.00 in0.0 mm
12:14 AM 63.5°F17.5°C 91.8°F33.2°C - 3.8 mph NE6.1 kmh NE 10.0 mph16.1 kmh 30.20 in1022.7 mb 0.00 in0.0 mm 0.00 in0.0 mm 0.00 in0.0 mm
12:19 AM 63.6°F17.6°C 92.0°F33.3°C - 8.4 mph NE13.5 kmh NE 13.8 mph22.2 kmh 30.20 in1022.7 mb 0.00 in0.0 mm 0.00 in0.0 mm 0.00 in0.0 mm
12:24 AM 63.6°F17.6°C 92.0°F33.3°C - 5.2 mph NE8.4 kmh NE 12.7 mph20.4 kmh 30.20 in1022.7 mb 0.00 in0.0 mm 0.00 in0.0 mm 0.00 in0.0 mm
12:29 AM 63.7°F17.6°C 92.1°F33.4°C - 2.8 mph NE4.5 kmh NE 8.7 mph14.0 kmh 30.20 in1022.7 mb 0.00 in0.0 mm 0.00 in0.0 mm 0.00 in0.0 mm
12:34 AM 63.7°F17.6°C 92.0°F33.3°C - 4.6 mph NE7.4 kmh NE 9.8 mph15.8 kmh 30.20 in1022.7 mb 0.00 in0.0 mm 0.00 in0.0 mm 0.00 in0.0 mm
12:39 AM 63.7°F17.6°C 92.1°F33.4°C - 5.7 mph NE9.2 kmh NE 10.4 mph16.7 kmh 30.20 in1022.7 mb 0.00 in0.0 mm 0.00 in0.0 mm 0.00 in0.0 mm
12:44 AM 63.7°F17.6°C 92.0°F33.3°C - 6.1 mph NE9.8 kmh NE 11.6 mph18.7 kmh 30.20 in1022.7 mb 0.00 in0.0 mm 0.00 in0.0 mm 0.00 in0.0 mm
12:49 AM 63.7°F17.6°C 92.1°F33.4°C - 2.5 mph NE4.0 kmh NE 8.6 mph13.8 kmh 30.20 in1022.7 mb 0.00 in0.0 mm 0.00 in0.0 mm 0.00 in0.0 mm
12:54 AM 63.7°F17.6°C 92.1°F33.4°C - 10.6 mph NE17.1 kmh NE 14.2 mph22.9 kmh 30.20 in1022.7 mb 0.00 in0.0 mm 0.00 in0.0 mm 0.00 in0.0 mm
12:59 AM 63.7°F17.6°C 92.0°F33.3°C - 10.1 mph NE16.3 kmh NE 13.9 mph22.4 kmh 30.20 in1022.7 mb 0.00 in0.0 mm 0.00 in0.0 mm 0.00 in0.0 mm
01:04 AM 63.7°F17.6°C 92.1°F33.4°C - 7.5 mph NE12.1 kmh NE 11.4 mph18.3 kmh 30.20 in1022.7 mb 0.00 in0.0 mm 0.00 in0.0 mm 0.00 in0.0 mm
01:09 AM 63.7°F17.6°C 92.1°F33.4°C - 11.1 mph NE17.9 kmh NE 15.4 mph24.8 kmh 30.19 in1022.4 mb 0.00 in0.0 mm 0.00 in0.0 mm 0.00 in0.0 mm
01:14 AM 63.7°F17.6°C 92.0°F33.3°C - 8.1 mph NE13.0 kmh NE 13.2 mph21.2 kmh 30.19 in1022.4 mb 0.00 in0.0 mm 0.00 in0.0 mm 0.00 in0.0 mm
01:19 AM 63.7°F17.6°C 92.1°F33.4°C - 5.1 mph NE8.2 kmh NE 11.8 mph19.0 kmh 30.19 in1022.4 mb 0.00 in0.0 mm 0.00 in0.0 mm 0.00 in0.0 mm
01:24 AM 63.7°F17.6°C 92.0°F33.3°C - 6.2 mph NE10.0 kmh NE 11.9 mph19.2 kmh 30.19 in1022.4 mb 0.00 in0.0 mm 0.00 in0.0 mm 0.00 in0.0 mm
01:29 AM 63.7°F17.6°C 92.1°F33.4°C - 7.5 mph NE12.1 kmh NE 11.5 mph18.5 kmh 30.19 in1022.4 mb 0.00 in0.0 mm 0.00 in0.0 mm 0.00 in0.0 mm
01:34 AM 63.7°F17.6°C 92.0°F33.3°C - 7.1 mph NE11.4 kmh NE 12.5 mph20.1 kmh 30.19 in1022.4 mb 0.00 in0.0 mm 0.00 in0.0 mm 0.00 in0.0 mm
01:39 AM 63.7°F17.6°C 92.1°F33.4°C - 8.3 mph NE13.4 kmh NE 12.6 mph20.3 kmh 30.19 in1022.4 mb 0.00 in0.0 mm 0.00 in0.0 mm 0.00 in0.0 mm
01:44 AM 63.6°F17.6°C 91.9°F33.3°C - 6.0 mph NE9.7 kmh NE 12.3 mph19.8 kmh 30.19 in1022.4 mb 0.00 in0.0 mm 0.00 in0.0 mm 0.00 in0.0 mm
01:49 AM 63.6°F17.6°C 91.9°F33.3°C - 7.2 mph NE11.6 kmh NE 11.2 mph18.0 kmh 30.19 in1022.4 mb 0.00 in0.0 mm 0.00 in0.0 mm 0.00 in0.0 mm
01:54 AM 63.6°F17.6°C 91.9°F33.3°C - 7.2 mph NE11.6 kmh NE 11.9 mph19.2 kmh 30.19 in1022.4 mb 0.00 in0.0 mm 0.00 in0.0 mm 0.00 in0.0 mm
01:59 AM 63.5°F17.5°C 91.9°F33.3°C - 8.8 mph NE14.2 kmh NE 11.7 mph18.8 kmh 30.19 in1022.4 mb 0.00 in0.0 mm 0.00 in0.0 mm 0.00 in0.0 mm
02:04 AM 63.6°F17.6°C 92.0°F33.3°C - 7.8 mph ENE12.6 kmh ENE 11.8 mph19.0 kmh 30.20 in1022.7 mb 0.00 in0.0 mm 0.00 in0.0 mm 0.00 in0.0 mm
02:09 AM 63.5°F17.5°C 91.8°F33.2°C - 7.0 mph NE11.3 kmh NE 10.1 mph16.3 kmh 30.19 in1022.4 mb 0.00 in0.0 mm 0.00 in0.0 mm 0.00 in0.0 mm
02:14 AM 63.4°F17.4°C 91.8°F33.2°C - 8.2 mph NE13.2 kmh NE 11.2 mph18.0 kmh 30.19 in1022.4 mb 0.00 in0.0 mm 0.00 in0.0 mm 0.00 in0.0 mm
02:19 AM 63.4°F17.4°C 91.6°F33.1°C - 6.6 mph ENE10.6 kmh ENE 10.5 mph16.9 kmh 30.20 in1022.7 mb 0.00 in0.0 mm 0.00 in0.0 mm 0.00 in0.0 mm
02:24 AM 63.3°F17.4°C 91.5°F33.1°C - 8.4 mph NE13.5 kmh NE 10.7 mph17.2 kmh 30.19 in1022.4 mb 0.00 in0.0 mm 0.00 in0.0 mm 0.00 in0.0 mm
02:29 AM 63.2°F17.3°C 91.4°F33.0°C - 6.1 mph NE9.8 kmh NE 9.7 mph15.6 kmh 30.19 in1022.4 mb 0.00 in0.0 mm 0.00 in0.0 mm 0.00 in0.0 mm
02:34 AM 63.2°F17.3°C 91.4°F33.0°C - 4.6 mph ENE7.4 kmh ENE 9.5 mph15.3 kmh 30.19 in1022.4 mb 0.00 in0.0 mm 0.00 in0.0 mm 0.00 in0.0 mm
02:39 AM 63.2°F17.3°C 91.5°F33.1°C - 1.1 mph ENE1.8 kmh ENE 5.0 mph8.0 kmh 30.19 in1022.4 mb 0.00 in0.0 mm 0.00 in0.0 mm 0.00 in0.0 mm
02:44 AM 63.2°F17.3°C 91.5°F33.1°C - 1.2 mph NE1.9 kmh NE 3.7 mph6.0 kmh 30.19 in1022.4 mb 0.00 in0.0 mm 0.00 in0.0 mm 0.00 in0.0 mm
02:49 AM 63.2°F17.3°C 91.5°F33.1°C - 0.1 mph ENE0.2 kmh ENE 2.0 mph3.2 kmh 30.19 in1022.4 mb 0.00 in0.0 mm 0.00 in0.0 mm 0.00 in0.0 mm
02:54 AM 63.2°F17.3°C 91.4°F33.0°C - 0.5 mph NE0.8 kmh NE 2.7 mph4.3 kmh 30.19 in1022.4 mb 0.00 in0.0 mm 0.00 in0.0 mm 0.00 in0.0 mm
02:59 AM 63.2°F17.3°C 91.4°F33.0°C - 0.1 mph NE0.2 kmh NE 1.4 mph2.3 kmh 30.19 in1022.4 mb 0.00 in0.0 mm 0.00 in0.0 mm 0.00 in0.0 mm
03:04 AM 63.2°F17.3°C 91.5°F33.1°C - 0.1 mph NE0.2 kmh NE 0.9 mph1.4 kmh 30.19 in1022.4 mb 0.00 in0.0 mm 0.00 in0.0 mm 0.00 in0.0 mm
03:09 AM 63.2°F17.3°C 91.5°F33.1°C - 0.1 mph NE0.2 kmh NE 1.0 mph1.6 kmh 30.19 in1022.4 mb 0.00 in0.0 mm 0.00 in0.0 mm 0.00 in0.0 mm
03:14 AM 63.3°F17.4°C 91.5°F33.1°C - 1.9 mph NE3.1 kmh NE 6.2 mph10.0 kmh 30.19 in1022.4 mb 0.00 in0.0 mm 0.00 in0.0 mm 0.00 in0.0 mm
03:19 AM 63.4°F17.4°C 91.8°F33.2°C - 1.2 mph NE1.9 kmh NE 4.9 mph7.9 kmh 30.19 in1022.4 mb 0.00 in0.0 mm 0.00 in0.0 mm 0.00 in0.0 mm
03:24 AM 63.5°F17.5°C 91.9°F33.3°C - 0.1 mph NE0.2 kmh NE 1.6 mph2.6 kmh 30.19 in1022.4 mb 0.00 in0.0 mm 0.00 in0.0 mm 0.00 in0.0 mm
03:29 AM 63.5°F17.5°C 91.9°F33.3°C - Calm Calm 0.6 mph1.0 kmh 30.19 in1022.4 mb 0.00 in0.0 mm 0.00 in0.0 mm 0.00 in0.0 mm
03:34 AM 63.3°F17.4°C 91.7°F33.2°C - 0.1 mph NE0.2 kmh NE 0.8 mph1.3 kmh 30.19 in1022.4 mb 0.00 in0.0 mm 0.00 in0.0 mm 0.00 in0.0 mm
03:39 AM 63.3°F17.4°C 91.5°F33.1°C - 0.1 mph NE0.2 kmh NE 1.3 mph2.1 kmh 30.19 in1022.4 mb 0.00 in0.0 mm 0.00 in0.0 mm 0.00 in0.0 mm
03:44 AM 63.5°F17.5°C 91.9°F33.3°C - 2.5 mph NE4.0 kmh NE 6.3 mph10.1 kmh 30.19 in1022.4 mb 0.00 in0.0 mm 0.00 in0.0 mm 0.00 in0.0 mm
03:49 AM 63.5°F17.5°C 91.9°F33.3°C - 5.1 mph ENE8.2 kmh ENE 10.1 mph16.3 kmh 30.19 in1022.4 mb 0.00 in0.0 mm 0.00 in0.0 mm 0.00 in0.0 mm
03:54 AM 63.3°F17.4°C 91.7°F33.2°C - 2.2 mph NE3.5 kmh NE 7.5 mph12.1 kmh 30.19 in1022.4 mb 0.00 in0.0 mm 0.00 in0.0 mm 0.00 in0.0 mm
03:59 AM 63.3°F17.4°C 91.7°F33.2°C - 0.2 mph NE0.3 kmh NE 0.8 mph1.3 kmh 30.19 in1022.4 mb 0.00 in0.0 mm 0.00 in0.0 mm 0.00 in0.0 mm
04:04 AM 63.4°F17.4°C 91.8°F33.2°C - 0.5 mph ENE0.8 kmh ENE 1.8 mph2.9 kmh 30.19 in1022.4 mb 0.00 in0.0 mm 0.00 in0.0 mm 0.00 in0.0 mm
04:09 AM 63.5°F17.5°C 91.8°F33.2°C - Calm Calm -- 30.19 in1022.4 mb 0.00 in0.0 mm 0.00 in0.0 mm 0.00 in0.0 mm
04:14 AM 63.4°F17.4°C 91.8°F33.2°C - 0.2 mph ENE0.3 kmh ENE 1.2 mph1.9 kmh 30.19 in1022.4 mb 0.00 in0.0 mm 0.00 in0.0 mm 0.00 in0.0 mm
04:19 AM 63.3°F17.4°C 91.5°F33.1°C - 0.2 mph ENE0.3 kmh ENE 2.0 mph3.2 kmh 30.19 in1022.4 mb 0.00 in0.0 mm 0.00 in0.0 mm 0.00 in0.0 mm
04:24 AM 63.3°F17.4°C 91.7°F33.2°C - Calm Calm 0.7 mph1.1 kmh 30.20 in1022.7 mb 0.00 in0.0 mm 0.00 in0.0 mm 0.00 in0.0 mm
04:29 AM 63.3°F17.4°C 91.7°F33.2°C - Calm Calm -- 30.19 in1022.4 mb 0.00 in0.0 mm 0.00 in0.0 mm 0.00 in0.0 mm
04:34 AM 63.3°F17.4°C 91.7°F33.2°C - 0.2 mph ENE0.3 kmh ENE 2.2 mph3.5 kmh 30.19 in1022.4 mb 0.00 in0.0 mm 0.00 in0.0 mm 0.00 in0.0 mm
04:39 AM 63.3°F17.4°C 91.7°F33.2°C - 0.2 mph ENE0.3 kmh ENE 2.0 mph3.2 kmh 30.19 in1022.4 mb 0.00 in0.0 mm 0.00 in0.0 mm 0.00 in0.0 mm
04:44 AM 63.3°F17.4°C 91.7°F33.2°C - 1.0 mph ENE1.6 kmh ENE 4.5 mph7.2 kmh 30.19 in1022.4 mb 0.00 in0.0 mm 0.00 in0.0 mm 0.00 in0.0 mm
04:49 AM 63.3°F17.4°C 91.7°F33.2°C - 3.9 mph ENE6.3 kmh ENE 6.2 mph10.0 kmh 30.19 in1022.4 mb 0.00 in0.0 mm 0.00 in0.0 mm 0.00 in0.0 mm
04:54 AM 63.2°F17.3°C 91.5°F33.1°C - 6.2 mph NE10.0 kmh NE 10.0 mph16.1 kmh 30.19 in1022.4 mb 0.00 in0.0 mm 0.00 in0.0 mm 0.00 in0.0 mm
04:59 AM 63.2°F17.3°C 91.4°F33.0°C - 1.2 mph NE1.9 kmh NE 5.8 mph9.3 kmh 30.19 in1022.4 mb 0.00 in0.0 mm 0.00 in0.0 mm 0.00 in0.0 mm
05:04 AM 63.3°F17.4°C 91.7°F33.2°C - 3.1 mph ENE5.0 kmh ENE 7.3 mph11.7 kmh 30.19 in1022.4 mb 0.00 in0.0 mm 0.00 in0.0 mm 0.00 in0.0 mm
05:09 AM 63.3°F17.4°C 91.7°F33.2°C - 1.8 mph NE2.9 kmh NE 5.4 mph8.7 kmh 30.19 in1022.4 mb 0.00 in0.0 mm 0.00 in0.0 mm 0.00 in0.0 mm
05:14 AM 63.3°F17.4°C 91.7°F33.2°C - 3.0 mph ENE4.8 kmh ENE 9.1 mph14.6 kmh 30.19 in1022.4 mb 0.00 in0.0 mm 0.00 in0.0 mm 0.00 in0.0 mm
05:19 AM 63.6°F17.6°C 91.9°F33.3°C - 2.6 mph NE4.2 kmh NE 7.9 mph12.7 kmh 30.19 in1022.4 mb 0.00 in0.0 mm 0.00 in0.0 mm 0.00 in0.0 mm
05:24 AM 63.7°F17.6°C 92.1°F33.4°C - Calm Calm -- 30.19 in1022.4 mb 0.00 in0.0 mm 0.00 in0.0 mm 0.00 in0.0 mm
05:29 AM 63.6°F17.6°C 92.0°F33.3°C - Calm Calm 0.5 mph0.8 kmh 30.19 in1022.4 mb 0.00 in0.0 mm 0.00 in0.0 mm 0.00 in0.0 mm
05:34 AM 63.6°F17.6°C 92.0°F33.3°C - 0.5 mph ENE0.8 kmh ENE 3.2 mph5.1 kmh 30.19 in1022.4 mb 0.00 in0.0 mm 0.00 in0.0 mm 0.00 in0.0 mm
05:39 AM 63.5°F17.5°C 91.8°F33.2°C - 0.1 mph ENE0.2 kmh ENE 1.2 mph1.9 kmh 30.19 in1022.4 mb 0.00 in0.0 mm 0.00 in0.0 mm 0.00 in0.0 mm
05:44 AM 63.5°F17.5°C 91.9°F33.3°C - Calm Calm 0.3 mph0.5 kmh 30.19 in1022.4 mb 0.00 in0.0 mm 0.00 in0.0 mm 0.00 in0.0 mm
05:49 AM 63.6°F17.6°C 92.0°F33.3°C - Calm Calm 1.5 mph2.4 kmh 30.19 in1022.4 mb 0.00 in0.0 mm 0.00 in0.0 mm 0.00 in0.0 mm
05:54 AM 63.7°F17.6°C 92.1°F33.4°C - 0.2 mph NE0.3 kmh NE 2.0 mph3.2 kmh 30.19 in1022.4 mb 0.00 in0.0 mm 0.00 in0.0 mm 0.00 in0.0 mm
05:59 AM 63.7°F17.6°C 92.1°F33.4°C - 0.3 mph ENE0.5 kmh ENE 2.6 mph4.2 kmh 30.20 in1022.7 mb 0.00 in0.0 mm 0.00 in0.0 mm 0.00 in0.0 mm
06:04 AM 63.7°F17.6°C 92.1°F33.4°C - 0.1 mph NE0.2 kmh NE 1.1 mph1.8 kmh 30.20 in1022.7 mb 0.00 in0.0 mm 0.00 in0.0 mm 0.00 in0.0 mm
06:09 AM 63.7°F17.6°C 92.1°F33.4°C - 6.7 mph ENE10.8 kmh ENE 10.5 mph16.9 kmh 30.19 in1022.4 mb 0.00 in0.0 mm 0.00 in0.0 mm 0.00 in0.0 mm
06:14 AM 63.9°F17.7°C 92.2°F33.4°C - 7.9 mph NE12.7 kmh NE 11.9 mph19.2 kmh 30.19 in1022.4 mb 0.00 in0.0 mm 0.00 in0.0 mm 0.00 in0.0 mm
06:19 AM 64.3°F17.9°C 92.7°F33.7°C - 9.6 mph ENE15.4 kmh ENE 12.3 mph19.8 kmh 30.19 in1022.4 mb 0.00 in0.0 mm 0.00 in0.0 mm 0.00 in0.0 mm
06:24 AM 64.5°F18.1°C 92.9°F33.8°C - 9.6 mph NE15.4 kmh NE 12.7 mph20.4 kmh 30.19 in1022.4 mb 0.00 in0.0 mm 0.00 in0.0 mm 0.00 in0.0 mm
06:29 AM 64.7°F18.2°C 93.1°F33.9°C - 7.1 mph NE11.4 kmh NE 9.2 mph14.8 kmh 30.19 in1022.4 mb 0.00 in0.0 mm 0.00 in0.0 mm 0.00 in0.0 mm
06:34 AM 64.5°F18.1°C 92.9°F33.8°C - 6.9 mph NE11.1 kmh NE 10.1 mph16.3 kmh 30.19 in1022.4 mb 0.00 in0.0 mm 0.00 in0.0 mm 0.00 in0.0 mm
06:39 AM 64.4°F18.0°C 92.9°F33.8°C - 6.3 mph ENE10.1 kmh ENE 9.9 mph15.9 kmh 30.19 in1022.4 mb 0.00 in0.0 mm 0.00 in0.0 mm 0.00 in0.0 mm
06:44 AM 64.4°F18.0°C 92.9°F33.8°C - 5.6 mph ENE9.0 kmh ENE 10.7 mph17.2 kmh 30.19 in1022.4 mb 0.00 in0.0 mm 0.00 in0.0 mm 0.00 in0.0 mm
06:49 AM 64.5°F18.1°C 92.9°F33.8°C - 6.5 mph NE10.5 kmh NE 9.2 mph14.8 kmh 30.19 in1022.4 mb 0.00 in0.0 mm 0.00 in0.0 mm 0.00 in0.0 mm
06:54 AM 64.5°F18.1°C 92.9°F33.8°C - 6.8 mph NE10.9 kmh NE 9.0 mph14.5 kmh 30.19 in1022.4 mb 0.00 in0.0 mm 0.00 in0.0 mm 0.00 in0.0 mm
06:59 AM 64.7°F18.2°C 93.2°F34.0°C - 9.0 mph NE14.5 kmh NE 11.6 mph18.7 kmh 30.19 in1022.4 mb 0.00 in0.0 mm 0.00 in0.0 mm 0.00 in0.0 mm
07:04 AM 64.9°F18.3°C 93.3°F34.1°C - 9.3 mph NE15.0 kmh NE 12.1 mph19.5 kmh 30.19 in1022.4 mb 0.00 in0.0 mm 0.00 in0.0 mm 0.00 in0.0 mm
07:09 AM 64.9°F18.3°C 93.5°F34.2°C - 8.5 mph NE13.7 kmh NE 10.3 mph16.6 kmh 30.19 in1022.4 mb 0.00 in0.0 mm 0.00 in0.0 mm 0.00 in0.0 mm
07:14 AM 65.0°F18.3°C 93.6°F34.2°C - 11.0 mph NE17.7 kmh NE 13.9 mph22.4 kmh 30.20 in1022.7 mb 0.00 in0.0 mm 0.00 in0.0 mm 0.00 in0.0 mm
07:19 AM 65.2°F18.4°C 93.8°F34.3°C - 6.4 mph NE10.3 kmh NE 10.8 mph17.4 kmh 30.19 in1022.4 mb 0.00 in0.0 mm 0.00 in0.0 mm 0.00 in0.0 mm
07:24 AM 65.0°F18.3°C 93.6°F34.2°C - 9.7 mph NE15.6 kmh NE 13.6 mph21.9 kmh 30.19 in1022.4 mb 0.00 in0.0 mm 0.00 in0.0 mm 0.00 in0.0 mm
07:29 AM 65.0°F18.3°C 93.6°F34.2°C - 3.8 mph NE6.1 kmh NE 9.2 mph14.8 kmh 30.20 in1022.7 mb 0.00 in0.0 mm 0.00 in0.0 mm 0.00 in0.0 mm
07:34 AM 65.0°F18.3°C 93.6°F34.2°C - 4.0 mph NE6.4 kmh NE 8.9 mph14.3 kmh 30.19 in1022.4 mb 0.00 in0.0 mm 0.00 in0.0 mm 0.00 in0.0 mm
07:39 AM 65.1°F18.4°C 93.7°F34.3°C - 3.4 mph NNE5.5 kmh NNE 10.4 mph16.7 kmh 30.20 in1022.7 mb 0.00 in0.0 mm 0.00 in0.0 mm 0.00 in0.0 mm
07:44 AM 65.4°F18.6°C 93.9°F34.4°C - 0.4 mph NE0.6 kmh NE 4.5 mph7.2 kmh 30.20 in1022.7 mb 0.00 in0.0 mm 0.00 in0.0 mm 0.00 in0.0 mm
07:49 AM 65.5°F18.6°C 94.1°F34.5°C - 5.2 mph NNE8.4 kmh NNE 12.3 mph19.8 kmh 30.20 in1022.7 mb 0.00 in0.0 mm 0.00 in0.0 mm 0.00 in0.0 mm
07:54 AM 65.7°F18.7°C 94.4°F34.7°C - 4.1 mph NE6.6 kmh NE 9.9 mph15.9 kmh 30.19 in1022.4 mb 0.00 in0.0 mm 0.00 in0.0 mm 0.00 in0.0 mm
07:59 AM 66.0°F18.9°C 94.6°F34.8°C - 3.8 mph NE6.1 kmh NE 7.5 mph12.1 kmh 30.20 in1022.7 mb 0.00 in0.0 mm 0.00 in0.0 mm 0.00 in0.0 mm
08:04 AM 66.0°F18.9°C 94.6°F34.8°C - 10.7 mph NE17.2 kmh NE 13.3 mph21.4 kmh 30.20 in1022.7 mb 0.00 in0.0 mm 0.00 in0.0 mm 0.00 in0.0 mm
08:09 AM 66.2°F19.0°C 94.8°F34.9°C - 10.2 mph NE16.4 kmh NE 12.8 mph20.6 kmh 30.20 in1022.7 mb 0.00 in0.0 mm 0.00 in0.0 mm 0.00 in0.0 mm
08:14 AM 66.2°F19.0°C 94.9°F34.9°C - 9.7 mph NNE15.6 kmh NNE 12.6 mph20.3 kmh 30.20 in1022.7 mb 0.00 in0.0 mm 0.00 in0.0 mm 0.00 in0.0 mm
08:19 AM 66.4°F19.1°C 95.2°F35.1°C - 9.9 mph NNE15.9 kmh NNE 12.5 mph20.1 kmh 30.20 in1022.7 mb 0.00 in0.0 mm 0.00 in0.0 mm 0.00 in0.0 mm
08:24 AM 66.5°F19.2°C 95.3°F35.2°C - 10.4 mph NE16.7 kmh NE 12.9 mph20.8 kmh 30.20 in1022.7 mb 0.00 in0.0 mm 0.00 in0.0 mm 0.00 in0.0 mm
08:29 AM 66.4°F19.1°C 95.2°F35.1°C - 10.6 mph NE17.1 kmh NE 13.2 mph21.2 kmh 30.20 in1022.7 mb 0.00 in0.0 mm 0.00 in0.0 mm 0.00 in0.0 mm
08:34 AM 66.0°F18.9°C 94.7°F34.8°C - 10.9 mph NNE17.5 kmh NNE 13.9 mph22.4 kmh 30.20 in1022.7 mb 0.00 in0.0 mm 0.00 in0.0 mm 0.00 in0.0 mm
08:39 AM 65.7°F18.7°C 94.4°F34.7°C - 9.4 mph NNE15.1 kmh NNE 11.2 mph18.0 kmh 30.20 in1022.7 mb 0.00 in0.0 mm 0.00 in0.0 mm 0.00 in0.0 mm
08:44 AM 65.7°F18.7°C 94.2°F34.6°C - 9.8 mph NNE15.8 kmh NNE 12.5 mph20.1 kmh 30.20 in1022.7 mb 0.00 in0.0 mm 0.00 in0.0 mm 0.00 in0.0 mm
08:49 AM 65.7°F18.7°C 94.4°F34.7°C - 10.8 mph NNE17.4 kmh NNE 12.7 mph20.4 kmh 30.20 in1022.7 mb 0.00 in0.0 mm 0.00 in0.0 mm 0.00 in0.0 mm
08:54 AM 65.9°F18.8°C 94.6°F34.8°C - 8.8 mph NNE14.2 kmh NNE 12.7 mph20.4 kmh 30.20 in1022.7 mb 0.00 in0.0 mm 0.00 in0.0 mm 0.00 in0.0 mm
08:59 AM 66.1°F18.9°C 94.8°F34.9°C - 12.2 mph NNE19.6 kmh NNE 14.2 mph22.9 kmh 30.20 in1022.7 mb 0.00 in0.0 mm 0.00 in0.0 mm 0.00 in0.0 mm
09:04 AM 66.4°F19.1°C 95.2°F35.1°C - 11.7 mph N18.8 kmh N 14.1 mph22.7 kmh 30.19 in1022.4 mb 0.00 in0.0 mm 0.00 in0.0 mm 0.00 in0.0 mm
09:09 AM 66.8°F19.3°C 95.6°F35.3°C - 12.8 mph NNE20.6 kmh NNE 14.7 mph23.7 kmh 30.19 in1022.4 mb 0.00 in0.0 mm 0.00 in0.0 mm 0.00 in0.0 mm
09:14 AM 67.0°F19.4°C 95.7°F35.4°C - 12.3 mph NNE19.8 kmh NNE 15.0 mph24.1 kmh 30.20 in1022.7 mb 0.00 in0.0 mm 0.00 in0.0 mm 0.00 in0.0 mm
09:19 AM 66.9°F19.4°C 95.7°F35.4°C - 8.6 mph NNE13.8 kmh NNE 13.8 mph22.2 kmh 30.20 in1022.7 mb 0.00 in0.0 mm 0.00 in0.0 mm 0.00 in0.0 mm
09:24 AM 66.8°F19.3°C 95.5°F35.3°C - 12.8 mph N20.6 kmh N 15.2 mph24.5 kmh 30.20 in1022.7 mb 0.00 in0.0 mm 0.00 in0.0 mm 0.00 in0.0 mm
09:29 AM 66.7°F19.3°C 95.5°F35.3°C - 11.6 mph NNE18.7 kmh NNE 14.8 mph23.8 kmh 30.20 in1022.7 mb 0.00 in0.0 mm 0.00 in0.0 mm 0.00 in0.0 mm
09:34 AM 66.7°F19.3°C 95.5°F35.3°C - 12.2 mph NNE19.6 kmh NNE 14.3 mph23.0 kmh 30.19 in1022.4 mb 0.00 in0.0 mm 0.00 in0.0 mm 0.00 in0.0 mm
09:39 AM 67.0°F19.4°C 95.8°F35.4°C - 13.0 mph NNE20.9 kmh NNE 15.0 mph24.1 kmh 30.19 in1022.4 mb 0.00 in0.0 mm 0.00 in0.0 mm 0.00 in0.0 mm
09:44 AM 66.9°F19.4°C 95.7°F35.4°C - 13.9 mph N22.4 kmh N 15.6 mph25.1 kmh 30.20 in1022.7 mb 0.00 in0.0 mm 0.00 in0.0 mm 0.00 in0.0 mm
09:49 AM 66.7°F19.3°C 95.5°F35.3°C - 13.5 mph N21.7 kmh N 14.7 mph23.7 kmh 30.19 in1022.4 mb 0.00 in0.0 mm 0.00 in0.0 mm 0.00 in0.0 mm
09:54 AM 66.7°F19.3°C 95.4°F35.2°C - 13.1 mph N21.1 kmh N 14.5 mph23.3 kmh 30.20 in1022.7 mb 0.00 in0.0 mm 0.00 in0.0 mm 0.00 in0.0 mm
09:59 AM 66.7°F19.3°C 95.5°F35.3°C - 14.2 mph N22.9 kmh N 16.1 mph25.9 kmh 30.19 in1022.4 mb 0.00 in0.0 mm 0.00 in0.0 mm 0.00 in0.0 mm
10:04 AM 66.6°F19.2°C 95.3°F35.2°C - 14.3 mph N23.0 kmh N 15.7 mph25.3 kmh 30.20 in1022.7 mb 0.00 in0.0 mm 0.00 in0.0 mm 0.00 in0.0 mm
10:09 AM 66.8°F19.3°C 95.6°F35.3°C - 13.5 mph N21.7 kmh N 15.6 mph25.1 kmh 30.19 in1022.4 mb 0.00 in0.0 mm 0.00 in0.0 mm 0.00 in0.0 mm
10:14 AM 67.2°F19.6°C 95.9°F35.5°C - 14.5 mph N23.3 kmh N 16.1 mph25.9 kmh 30.19 in1022.4 mb 0.00 in0.0 mm 0.00 in0.0 mm 0.00 in0.0 mm
10:19 AM 67.5°F19.7°C 96.3°F35.7°C - 14.2 mph NNE22.9 kmh NNE 16.4 mph26.4 kmh 30.20 in1022.7 mb 0.00 in0.0 mm 0.00 in0.0 mm 0.00 in0.0 mm
10:24 AM 67.2°F19.6°C 95.9°F35.5°C - 16.2 mph N26.1 kmh N 18.3 mph29.5 kmh 30.19 in1022.4 mb 0.00 in0.0 mm 0.00 in0.0 mm 0.00 in0.0 mm
10:29 AM 67.0°F19.4°C 95.7°F35.4°C - 15.7 mph NE25.3 kmh NE 18.8 mph30.3 kmh 30.19 in1022.4 mb 0.00 in0.0 mm 0.00 in0.0 mm 0.00 in0.0 mm
10:34 AM 67.0°F19.4°C 95.8°F35.4°C - 13.6 mph NNE21.9 kmh NNE 17.7 mph28.5 kmh 30.20 in1022.7 mb 0.00 in0.0 mm 0.00 in0.0 mm 0.00 in0.0 mm
10:39 AM 67.1°F19.5°C 95.8°F35.4°C - 14.9 mph NNE24.0 kmh NNE 18.2 mph29.3 kmh 30.19 in1022.4 mb 0.00 in0.0 mm 0.00 in0.0 mm 0.00 in0.0 mm
10:44 AM 67.2°F19.6°C 96.1°F35.6°C - 14.0 mph NNE22.5 kmh NNE 17.0 mph27.4 kmh 30.19 in1022.4 mb 0.00 in0.0 mm 0.00 in0.0 mm 0.00 in0.0 mm
10:49 AM 67.3°F19.6°C 96.0°F35.6°C - 13.8 mph NNE22.2 kmh NNE 17.0 mph27.4 kmh 30.19 in1022.4 mb 0.00 in0.0 mm 0.00 in0.0 mm 0.00 in0.0 mm
10:54 AM 67.5°F19.7°C 96.4°F35.8°C - 14.2 mph N22.9 kmh N 19.6 mph31.5 kmh 30.19 in1022.4 mb 0.00 in0.0 mm 0.00 in0.0 mm 0.00 in0.0 mm
10:59 AM 67.5°F19.7°C 96.3°F35.7°C - 15.8 mph NNE25.4 kmh NNE 19.3 mph31.1 kmh 30.19 in1022.4 mb 0.00 in0.0 mm 0.00 in0.0 mm 0.00 in0.0 mm
11:04 AM 67.2°F19.6°C 96.1°F35.6°C - 14.3 mph NNE23.0 kmh NNE 17.5 mph28.2 kmh 30.19 in1022.4 mb 0.00 in0.0 mm 0.00 in0.0 mm 0.00 in0.0 mm
11:09 AM 66.9°F19.4°C 95.7°F35.4°C - 15.3 mph N24.6 kmh N 17.7 mph28.5 kmh 30.19 in1022.4 mb 0.00 in0.0 mm 0.00 in0.0 mm 0.00 in0.0 mm
11:14 AM 66.7°F19.3°C 95.4°F35.2°C - 15.5 mph N24.9 kmh N 17.4 mph28.0 kmh 30.19 in1022.4 mb 0.00 in0.0 mm 0.00 in0.0 mm 0.00 in0.0 mm
11:19 AM 66.5°F19.2°C 95.1°F35.1°C - 14.2 mph N22.9 kmh N 17.0 mph27.4 kmh 30.19 in1022.4 mb 0.00 in0.0 mm 0.00 in0.0 mm 0.00 in0.0 mm
11:24 AM 66.5°F19.2°C 95.1°F35.1°C - 14.2 mph N22.9 kmh N 16.1 mph25.9 kmh 30.19 in1022.4 mb 0.00 in0.0 mm 0.00 in0.0 mm 0.00 in0.0 mm
11:29 AM 66.4°F19.1°C 95.2°F35.1°C - 15.6 mph N25.1 kmh N 17.4 mph28.0 kmh 30.19 in1022.4 mb 0.00 in0.0 mm 0.00 in0.0 mm 0.00 in0.0 mm
11:34 AM 66.2°F19.0°C 94.8°F34.9°C - 14.7 mph N23.7 kmh N 17.4 mph28.0 kmh 30.20 in1022.7 mb 0.00 in0.0 mm 0.00 in0.0 mm 0.00 in0.0 mm
11:39 AM 66.1°F18.9°C 94.8°F34.9°C - 15.9 mph N25.6 kmh N 18.3 mph29.5 kmh 30.20 in1022.7 mb 0.00 in0.0 mm 0.00 in0.0 mm 0.00 in0.0 mm
11:44 AM 66.0°F18.9°C 94.7°F34.8°C - 16.4 mph N26.4 kmh N 18.5 mph29.8 kmh 30.20 in1022.7 mb 0.00 in0.0 mm 0.00 in0.0 mm 0.00 in0.0 mm
11:49 AM 66.0°F18.9°C 94.7°F34.8°C - 14.8 mph N23.8 kmh N 17.0 mph27.4 kmh 30.19 in1022.4 mb 0.00 in0.0 mm 0.00 in0.0 mm 0.00 in0.0 mm
11:54 AM 65.8°F18.8°C 94.5°F34.7°C - 14.6 mph N23.5 kmh N 16.3 mph26.2 kmh 30.19 in1022.4 mb 0.00 in0.0 mm 0.00 in0.0 mm 0.00 in0.0 mm
11:59 AM 65.7°F18.7°C 94.4°F34.7°C - 13.1 mph N21.1 kmh N 14.9 mph24.0 kmh 30.20 in1022.7 mb 0.00 in0.0 mm 0.00 in0.0 mm 0.00 in0.0 mm
12:05 PM 65.7°F18.7°C 94.4°F34.7°C - 13.5 mph N21.7 kmh N 15.1 mph24.3 kmh 30.19 in1022.4 mb 0.00 in0.0 mm 0.00 in0.0 mm 0.00 in0.0 mm
12:09 PM 65.7°F18.7°C 94.4°F34.7°C - 13.7 mph N22.0 kmh N 15.6 mph25.1 kmh 30.19 in1022.4 mb 0.00 in0.0 mm 0.00 in0.0 mm 0.00 in0.0 mm
12:14 PM 65.7°F18.7°C 94.4°F34.7°C - 15.6 mph N25.1 kmh N 17.2 mph27.7 kmh 30.19 in1022.4 mb 0.00 in0.0 mm 0.00 in0.0 mm 0.00 in0.0 mm
12:19 PM 65.7°F18.7°C 94.2°F34.6°C - 14.0 mph NNW22.5 kmh NNW 15.6 mph25.1 kmh 30.19 in1022.4 mb 0.00 in0.0 mm 0.00 in0.0 mm 0.00 in0.0 mm
12:24 PM 65.7°F18.7°C 94.4°F34.7°C - 14.1 mph N22.7 kmh N 15.6 mph25.1 kmh 30.19 in1022.4 mb 0.00 in0.0 mm 0.00 in0.0 mm 0.00 in0.0 mm
12:29 PM 65.9°F18.8°C 94.6°F34.8°C - 13.2 mph N21.2 kmh N 14.6 mph23.5 kmh 30.19 in1022.4 mb 0.00 in0.0 mm 0.00 in0.0 mm 0.00 in0.0 mm
12:34 PM 66.0°F18.9°C 94.7°F34.8°C - 13.7 mph N22.0 kmh N 16.0 mph25.7 kmh 30.19 in1022.4 mb 0.00 in0.0 mm 0.00 in0.0 mm 0.00 in0.0 mm
12:39 PM 66.2°F19.0°C 94.9°F34.9°C - 13.2 mph NNW21.2 kmh NNW 14.9 mph24.0 kmh 30.19 in1022.4 mb 0.00 in0.0 mm 0.00 in0.0 mm 0.00 in0.0 mm
12:44 PM 66.0°F18.9°C 94.6°F34.8°C - 13.2 mph N21.2 kmh N 14.8 mph23.8 kmh 30.19 in1022.4 mb 0.00 in0.0 mm 0.00 in0.0 mm 0.00 in0.0 mm
12:49 PM 66.2°F19.0°C 94.9°F34.9°C - 13.2 mph NNW21.2 kmh NNW 14.8 mph23.8 kmh 30.19 in1022.4 mb 0.00 in0.0 mm 0.00 in0.0 mm 0.00 in0.0 mm
12:54 PM 66.7°F19.3°C 95.4°F35.2°C - 14.0 mph N22.5 kmh N 15.3 mph24.6 kmh 30.19 in1022.4 mb 0.00 in0.0 mm 0.00 in0.0 mm 0.00 in0.0 mm
12:59 PM 67.2°F19.6°C 96.1°F35.6°C - 12.5 mph NNW20.1 kmh NNW 14.0 mph22.5 kmh 30.19 in1022.4 mb 0.00 in0.0 mm 0.00 in0.0 mm 0.00 in0.0 mm
01:04 PM 67.4°F19.7°C 96.3°F35.7°C - 14.4 mph N23.2 kmh N 15.5 mph24.9 kmh 30.19 in1022.4 mb 0.00 in0.0 mm 0.00 in0.0 mm 0.00 in0.0 mm
01:09 PM 67.6°F19.8°C 96.5°F35.8°C - 14.2 mph N22.9 kmh N 16.1 mph25.9 kmh 30.18 in1022.0 mb 0.00 in0.0 mm 0.00 in0.0 mm 0.00 in0.0 mm
01:14 PM 67.7°F19.8°C 96.6°F35.9°C - 15.3 mph N24.6 kmh N 17.4 mph28.0 kmh 30.18 in1022.0 mb 0.00 in0.0 mm 0.00 in0.0 mm 0.00 in0.0 mm
01:19 PM 67.7°F19.8°C 96.5°F35.8°C - 14.4 mph N23.2 kmh N 16.0 mph25.7 kmh 30.18 in1022.0 mb 0.00 in0.0 mm 0.00 in0.0 mm 0.00 in0.0 mm
01:24 PM 67.7°F19.8°C 96.6°F35.9°C - 16.3 mph N26.2 kmh N 18.5 mph29.8 kmh 30.18 in1022.0 mb 0.00 in0.0 mm 0.00 in0.0 mm 0.00 in0.0 mm
01:29 PM 67.7°F19.8°C 96.5°F35.8°C - 16.9 mph N27.2 kmh N 19.0 mph30.6 kmh 30.18 in1022.0 mb 0.00 in0.0 mm 0.00 in0.0 mm 0.00 in0.0 mm
01:34 PM 67.7°F19.8°C 96.6°F35.9°C - 19.1 mph N30.7 kmh N 21.3 mph34.3 kmh 30.18 in1022.0 mb 0.00 in0.0 mm 0.00 in0.0 mm 0.00 in0.0 mm
01:39 PM 67.8°F19.9°C 96.6°F35.9°C - 18.6 mph N29.9 kmh N 21.2 mph34.1 kmh 30.18 in1022.0 mb 0.00 in0.0 mm 0.00 in0.0 mm 0.00 in0.0 mm
01:44 PM 67.7°F19.8°C 96.5°F35.8°C - 17.7 mph N28.5 kmh N 19.9 mph32.0 kmh 30.18 in1022.0 mb 0.00 in0.0 mm 0.00 in0.0 mm 0.00 in0.0 mm
01:49 PM 67.7°F19.8°C 96.5°F35.8°C - 18.2 mph N29.3 kmh N 20.6 mph33.2 kmh 30.18 in1022.0 mb 0.00 in0.0 mm 0.00 in0.0 mm 0.00 in0.0 mm
01:54 PM 67.7°F19.8°C 96.5°F35.8°C - 18.6 mph N29.9 kmh N 21.1 mph34.0 kmh 30.18 in1022.0 mb 0.00 in0.0 mm 0.00 in0.0 mm 0.00 in0.0 mm
01:59 PM 67.9°F19.9°C 96.8°F36.0°C - 17.1 mph N27.5 kmh N 19.6 mph31.5 kmh 30.18 in1022.0 mb 0.00 in0.0 mm 0.00 in0.0 mm 0.00 in0.0 mm
02:04 PM 67.9°F19.9°C 96.8°F36.0°C - 17.4 mph N28.0 kmh N 19.2 mph30.9 kmh 30.18 in1022.0 mb 0.00 in0.0 mm 0.00 in0.0 mm 0.00 in0.0 mm
02:09 PM 67.9°F19.9°C 96.8°F36.0°C - 13.9 mph N22.4 kmh N 20.4 mph32.8 kmh 30.17 in1021.7 mb 0.00 in0.0 mm 0.00 in0.0 mm 0.00 in0.0 mm
02:14 PM 67.9°F19.9°C 96.7°F35.9°C - 18.4 mph N29.6 kmh N 20.2 mph32.5 kmh 30.18 in1022.0 mb 0.00 in0.0 mm 0.00 in0.0 mm 0.00 in0.0 mm
02:19 PM 68.0°F20.0°C 96.8°F36.0°C - 16.8 mph N27.0 kmh N 19.2 mph30.9 kmh 30.18 in1022.0 mb 0.00 in0.0 mm 0.00 in0.0 mm 0.00 in0.0 mm
02:24 PM 68.2°F20.1°C 97.1°F36.2°C - 18.2 mph N29.3 kmh N 20.8 mph33.5 kmh 30.17 in1021.7 mb 0.00 in0.0 mm 0.00 in0.0 mm 0.00 in0.0 mm
02:29 PM 68.2°F20.1°C 97.2°F36.2°C - 18.9 mph N30.4 kmh N 21.2 mph34.1 kmh 30.17 in1021.7 mb 0.00 in0.0 mm 0.00 in0.0 mm 0.00 in0.0 mm
02:34 PM 68.0°F20.0°C 96.8°F36.0°C - 19.3 mph N31.1 kmh N 21.3 mph34.3 kmh 30.17 in1021.7 mb 0.00 in0.0 mm 0.00 in0.0 mm 0.00 in0.0 mm
02:39 PM 68.0°F20.0°C 97.0°F36.1°C - 18.1 mph N29.1 kmh N 20.3 mph32.7 kmh 30.17 in1021.7 mb 0.00 in0.0 mm 0.00 in0.0 mm 0.00 in0.0 mm
02:44 PM 68.0°F20.0°C 97.0°F36.1°C - 18.6 mph N29.9 kmh N 21.2 mph34.1 kmh 30.18 in1022.0 mb 0.00 in0.0 mm 0.00 in0.0 mm 0.00 in0.0 mm
02:49 PM 68.2°F20.1°C 97.2°F36.2°C - 18.5 mph N29.8 kmh N 21.1 mph34.0 kmh 30.17 in1021.7 mb 0.00 in0.0 mm 0.00 in0.0 mm 0.00 in0.0 mm
02:54 PM 68.5°F20.3°C 97.4°F36.3°C - 18.9 mph N30.4 kmh N 21.3 mph34.3 kmh 30.17 in1021.7 mb 0.00 in0.0 mm 0.00 in0.0 mm 0.00 in0.0 mm
02:59 PM 68.7°F20.4°C 97.6°F36.4°C - 20.8 mph N33.5 kmh N 23.8 mph38.3 kmh 30.17 in1021.7 mb 0.00 in0.0 mm 0.00 in0.0 mm 0.00 in0.0 mm
03:04 PM 68.5°F20.3°C 97.4°F36.3°C - 20.5 mph N33.0 kmh N 22.5 mph36.2 kmh 30.17 in1021.7 mb 0.00 in0.0 mm 0.00 in0.0 mm 0.00 in0.0 mm
03:09 PM 68.5°F20.3°C 97.4°F36.3°C - 21.1 mph N34.0 kmh N 24.0 mph38.6 kmh 30.17 in1021.7 mb 0.00 in0.0 mm 0.00 in0.0 mm 0.00 in0.0 mm
03:14 PM 68.5°F20.3°C 97.5°F36.4°C - 21.2 mph N34.1 kmh N 23.9 mph38.5 kmh 30.17 in1021.7 mb 0.00 in0.0 mm 0.00 in0.0 mm 0.00 in0.0 mm
03:19 PM 68.2°F20.1°C 97.1°F36.2°C - 20.8 mph N33.5 kmh N 23.3 mph37.5 kmh 30.17 in1021.7 mb 0.00 in0.0 mm 0.00 in0.0 mm 0.00 in0.0 mm
03:24 PM 68.0°F20.0°C 97.0°F36.1°C - 18.5 mph N29.8 kmh N 21.5 mph34.6 kmh 30.17 in1021.7 mb 0.00 in0.0 mm 0.00 in0.0 mm 0.00 in0.0 mm
03:29 PM 68.0°F20.0°C 97.0°F36.1°C - 21.4 mph N34.4 kmh N 24.0 mph38.6 kmh 30.16 in1021.3 mb 0.00 in0.0 mm 0.00 in0.0 mm 0.00 in0.0 mm
03:34 PM 67.9°F19.9°C 96.7°F35.9°C - 20.8 mph N33.5 kmh N 24.0 mph38.6 kmh 30.16 in1021.3 mb 0.00 in0.0 mm 0.00 in0.0 mm 0.00 in0.0 mm
03:39 PM 68.0°F20.0°C 97.0°F36.1°C - 21.2 mph N34.1 kmh N 24.1 mph38.8 kmh 30.16 in1021.3 mb 0.00 in0.0 mm 0.00 in0.0 mm 0.00 in0.0 mm
03:44 PM 68.0°F20.0°C 97.0°F36.1°C - 21.2 mph NNW34.1 kmh NNW 23.7 mph38.1 kmh 30.16 in1021.3 mb 0.00 in0.0 mm 0.00 in0.0 mm 0.00 in0.0 mm
03:49 PM 67.9°F19.9°C 96.8°F36.0°C - 20.1 mph N32.3 kmh N 22.3 mph35.9 kmh 30.16 in1021.3 mb 0.00 in0.0 mm 0.00 in0.0 mm 0.00 in0.0 mm
03:54 PM 68.0°F20.0°C 96.8°F36.0°C - 19.7 mph N31.7 kmh N 23.2 mph37.3 kmh 30.16 in1021.3 mb 0.00 in0.0 mm 0.00 in0.0 mm 0.00 in0.0 mm
03:59 PM 68.0°F20.0°C 96.8°F36.0°C - 20.1 mph N32.3 kmh N 23.2 mph37.3 kmh 30.16 in1021.3 mb 0.00 in0.0 mm 0.00 in0.0 mm 0.00 in0.0 mm
04:04 PM 68.0°F20.0°C 96.8°F36.0°C - 13.7 mph N22.0 kmh N 20.7 mph33.3 kmh 30.16 in1021.3 mb 0.00 in0.0 mm 0.00 in0.0 mm 0.00 in0.0 mm
04:09 PM 68.0°F20.0°C 97.0°F36.1°C - 19.9 mph N32.0 kmh N 22.7 mph36.5 kmh 30.16 in1021.3 mb 0.00 in0.0 mm 0.00 in0.0 mm 0.00 in0.0 mm
04:14 PM 68.0°F20.0°C 97.0°F36.1°C - 20.3 mph N32.7 kmh N 22.6 mph36.4 kmh 30.16 in1021.3 mb 0.00 in0.0 mm 0.00 in0.0 mm 0.00 in0.0 mm
04:19 PM 67.8°F19.9°C 96.6°F35.9°C - 19.8 mph N31.9 kmh N 22.7 mph36.5 kmh 30.16 in1021.3 mb 0.00 in0.0 mm 0.00 in0.0 mm 0.00 in0.0 mm
04:24 PM 67.7°F19.8°C 96.6°F35.9°C - 19.0 mph N30.6 kmh N 21.3 mph34.3 kmh 30.16 in1021.3 mb 0.00 in0.0 mm 0.00 in0.0 mm 0.00 in0.0 mm
04:29 PM 67.7°F19.8°C 96.6°F35.9°C - 18.8 mph N30.3 kmh N 22.0 mph35.4 kmh 30.16 in1021.3 mb 0.00 in0.0 mm 0.00 in0.0 mm 0.00 in0.0 mm
04:34 PM 67.7°F19.8°C 96.6°F35.9°C - 19.5 mph N31.4 kmh N 21.9 mph35.2 kmh 30.16 in1021.3 mb 0.00 in0.0 mm 0.00 in0.0 mm 0.00 in0.0 mm
04:39 PM 67.7°F19.8°C 96.6°F35.9°C - 18.4 mph N29.6 kmh N 21.7 mph34.9 kmh 30.16 in1021.3 mb 0.00 in0.0 mm 0.00 in0.0 mm 0.00 in0.0 mm
04:44 PM 67.7°F19.8°C 96.5°F35.8°C - 20.2 mph N32.5 kmh N 22.2 mph35.7 kmh 30.16 in1021.3 mb 0.00 in0.0 mm 0.00 in0.0 mm 0.00 in0.0 mm
04:49 PM 67.5°F19.7°C 96.3°F35.7°C - 18.9 mph N30.4 kmh N 21.7 mph34.9 kmh 30.16 in1021.3 mb 0.00 in0.0 mm 0.00 in0.0 mm 0.00 in0.0 mm
04:54 PM 67.5°F19.7°C 96.4°F35.8°C - 19.5 mph N31.4 kmh N 21.7 mph34.9 kmh 30.16 in1021.3 mb 0.00 in0.0 mm 0.00 in0.0 mm 0.00 in0.0 mm
04:59 PM 67.5°F19.7°C 96.4°F35.8°C - 17.2 mph N27.7 kmh N 20.4 mph32.8 kmh 30.16 in1021.3 mb 0.00 in0.0 mm 0.00 in0.0 mm 0.00 in0.0 mm
05:04 PM 67.7°F19.8°C 96.6°F35.9°C - 6.8 mph N10.9 kmh N 16.3 mph26.2 kmh 30.16 in1021.3 mb 0.00 in0.0 mm 0.00 in0.0 mm 0.00 in0.0 mm
05:09 PM 67.7°F19.8°C 96.6°F35.9°C - 11.9 mph N19.2 kmh N 20.3 mph32.7 kmh 30.16 in1021.3 mb 0.00 in0.0 mm 0.00 in0.0 mm 0.00 in0.0 mm
05:14 PM 67.6°F19.8°C 96.5°F35.8°C - 18.7 mph N30.1 kmh N 20.8 mph33.5 kmh 30.16 in1021.3 mb 0.00 in0.0 mm 0.00 in0.0 mm 0.00 in0.0 mm
05:19 PM 67.6°F19.8°C 96.5°F35.8°C - 19.6 mph N31.5 kmh N 21.4 mph34.4 kmh 30.16 in1021.3 mb 0.00 in0.0 mm 0.00 in0.0 mm 0.00 in0.0 mm
05:24 PM 67.7°F19.8°C 96.6°F35.9°C - 17.2 mph N27.7 kmh N 21.1 mph34.0 kmh 30.16 in1021.3 mb 0.00 in0.0 mm 0.00 in0.0 mm 0.00 in0.0 mm
05:29 PM 67.5°F19.7°C 96.4°F35.8°C - 19.7 mph N31.7 kmh N 21.7 mph34.9 kmh 30.15 in1021.0 mb 0.00 in0.0 mm 0.00 in0.0 mm 0.00 in0.0 mm
05:34 PM 67.5°F19.7°C 96.4°F35.8°C - 4.4 mph N7.1 kmh N 13.8 mph22.2 kmh 30.16 in1021.3 mb 0.00 in0.0 mm 0.00 in0.0 mm 0.00 in0.0 mm
05:39 PM 67.5°F19.7°C 96.3°F35.7°C - 10.8 mph N17.4 kmh N 19.9 mph32.0 kmh 30.16 in1021.3 mb 0.00 in0.0 mm 0.00 in0.0 mm 0.00 in0.0 mm
05:44 PM 67.5°F19.7°C 96.3°F35.7°C - 0.3 mph N0.5 kmh N 4.1 mph6.6 kmh 30.15 in1021.0 mb 0.00 in0.0 mm 0.00 in0.0 mm 0.00 in0.0 mm
05:49 PM 67.7°F19.8°C 96.6°F35.9°C - Calm Calm -- 30.16 in1021.3 mb 0.00 in0.0 mm 0.00 in0.0 mm 0.00 in0.0 mm
05:54 PM 67.6°F19.8°C 96.5°F35.8°C - Calm Calm 1.2 mph1.9 kmh 30.16 in1021.3 mb 0.00 in0.0 mm 0.00 in0.0 mm 0.00 in0.0 mm
05:59 PM 67.6°F19.8°C 96.5°F35.8°C - Calm Calm -- 30.16 in1021.3 mb 0.00 in0.0 mm 0.00 in0.0 mm 0.00 in0.0 mm
06:04 PM 67.7°F19.8°C 96.6°F35.9°C - 0.2 mph N0.3 kmh N 2.8 mph4.5 kmh 30.16 in1021.3 mb 0.00 in0.0 mm 0.00 in0.0 mm 0.00 in0.0 mm
06:09 PM 67.7°F19.8°C 96.5°F35.8°C - 3.7 mph N6.0 kmh N 7.8 mph12.6 kmh 30.16 in1021.3 mb 0.00 in0.0 mm 0.00 in0.0 mm 0.00 in0.0 mm
06:14 PM 67.7°F19.8°C 96.6°F35.9°C - 5.5 mph N8.9 kmh N 12.0 mph19.3 kmh 30.16 in1021.3 mb 0.00 in0.0 mm 0.00 in0.0 mm 0.00 in0.0 mm
06:19 PM 67.8°F19.9°C 96.6°F35.9°C - 8.5 mph N13.7 kmh N 17.0 mph27.4 kmh 30.16 in1021.3 mb 0.00 in0.0 mm 0.00 in0.0 mm 0.00 in0.0 mm
06:24 PM 68.0°F20.0°C 97.0°F36.1°C - 3.4 mph N5.5 kmh N 13.4 mph21.6 kmh 30.16 in1021.3 mb 0.00 in0.0 mm 0.00 in0.0 mm 0.00 in0.0 mm
06:29 PM 68.0°F20.0°C 97.0°F36.1°C - 11.2 mph N18.0 kmh N 18.6 mph29.9 kmh 30.16 in1021.3 mb 0.00 in0.0 mm 0.00 in0.0 mm 0.00 in0.0 mm
06:34 PM 67.9°F19.9°C 96.7°F35.9°C - 12.0 mph N19.3 kmh N 17.5 mph28.2 kmh 30.16 in1021.3 mb 0.00 in0.0 mm 0.00 in0.0 mm 0.00 in0.0 mm
06:39 PM 67.9°F19.9°C 96.7°F35.9°C - 2.0 mph N3.2 kmh N 11.1 mph17.9 kmh 30.16 in1021.3 mb 0.00 in0.0 mm 0.00 in0.0 mm 0.00 in0.0 mm
06:44 PM 68.0°F20.0°C 97.0°F36.1°C - 3.4 mph N5.5 kmh N 13.9 mph22.4 kmh 30.16 in1021.3 mb 0.00 in0.0 mm 0.00 in0.0 mm 0.00 in0.0 mm
06:49 PM 67.9°F19.9°C 96.7°F35.9°C - 11.3 mph N18.2 kmh N 18.1 mph29.1 kmh 30.17 in1021.7 mb 0.00 in0.0 mm 0.00 in0.0 mm 0.00 in0.0 mm
06:54 PM 67.7°F19.8°C 96.5°F35.8°C - 15.4 mph N24.8 kmh N 19.8 mph31.9 kmh 30.16 in1021.3 mb 0.00 in0.0 mm 0.00 in0.0 mm 0.00 in0.0 mm
06:59 PM 67.7°F19.8°C 96.6°F35.9°C - 16.7 mph N26.9 kmh N 19.1 mph30.7 kmh 30.17 in1021.7 mb 0.00 in0.0 mm 0.00 in0.0 mm 0.00 in0.0 mm
07:04 PM 67.7°F19.8°C 96.5°F35.8°C - 16.1 mph NNE25.9 kmh NNE 18.5 mph29.8 kmh 30.17 in1021.7 mb 0.00 in0.0 mm 0.00 in0.0 mm 0.00 in0.0 mm
07:09 PM 67.9°F19.9°C 96.8°F36.0°C - 16.4 mph N26.4 kmh N 19.2 mph30.9 kmh 30.17 in1021.7 mb 0.00 in0.0 mm 0.00 in0.0 mm 0.00 in0.0 mm
07:14 PM 68.0°F20.0°C 97.0°F36.1°C - 8.4 mph N13.5 kmh N 13.2 mph21.2 kmh 30.17 in1021.7 mb 0.00 in0.0 mm 0.00 in0.0 mm 0.00 in0.0 mm
07:19 PM 68.2°F20.1°C 97.2°F36.2°C - Calm Calm -- 30.17 in1021.7 mb 0.00 in0.0 mm 0.00 in0.0 mm 0.00 in0.0 mm
07:24 PM 68.2°F20.1°C 97.2°F36.2°C - Calm Calm -- 30.17 in1021.7 mb 0.00 in0.0 mm 0.00 in0.0 mm 0.00 in0.0 mm
07:29 PM 68.2°F20.1°C 97.2°F36.2°C - 4.8 mph N7.7 kmh N 12.0 mph19.3 kmh 30.17 in1021.7 mb 0.00 in0.0 mm 0.00 in0.0 mm 0.00 in0.0 mm
07:34 PM 68.2°F20.1°C 97.2°F36.2°C - 3.6 mph N5.8 kmh N 4.4 mph7.1 kmh 30.17 in1021.7 mb 0.00 in0.0 mm 0.00 in0.0 mm 0.00 in0.0 mm
07:39 PM 68.1°F20.1°C 96.9°F36.1°C - 16.4 mph N26.4 kmh N 18.5 mph29.8 kmh 30.17 in1021.7 mb 0.00 in0.0 mm 0.00 in0.0 mm 0.00 in0.0 mm
07:44 PM 68.0°F20.0°C 97.0°F36.1°C - 15.4 mph N24.8 kmh N 17.7 mph28.5 kmh 30.17 in1021.7 mb 0.00 in0.0 mm 0.00 in0.0 mm 0.00 in0.0 mm
07:49 PM 68.0°F20.0°C 97.0°F36.1°C - 13.4 mph N21.6 kmh N 16.4 mph26.4 kmh 30.17 in1021.7 mb 0.00 in0.0 mm 0.00 in0.0 mm 0.00 in0.0 mm
07:54 PM 68.2°F20.1°C 97.2°F36.2°C - 3.0 mph N4.8 kmh N 7.8 mph12.6 kmh 30.18 in1022.0 mb 0.00 in0.0 mm 0.00 in0.0 mm 0.00 in0.0 mm
07:59 PM 68.0°F20.0°C 97.0°F36.1°C - 9.4 mph NNE15.1 kmh NNE 17.0 mph27.4 kmh 30.17 in1021.7 mb 0.00 in0.0 mm 0.00 in0.0 mm 0.00 in0.0 mm
08:04 PM 67.8°F19.9°C 96.6°F35.9°C - 13.6 mph NNE21.9 kmh NNE 16.5 mph26.6 kmh 30.17 in1021.7 mb 0.00 in0.0 mm 0.00 in0.0 mm 0.00 in0.0 mm
08:09 PM 67.9°F19.9°C 96.8°F36.0°C - 13.8 mph NNE22.2 kmh NNE 17.0 mph27.4 kmh 30.18 in1022.0 mb 0.00 in0.0 mm 0.00 in0.0 mm 0.00 in0.0 mm
08:14 PM 67.9°F19.9°C 96.8°F36.0°C - 11.5 mph NNE18.5 kmh NNE 14.8 mph23.8 kmh 30.18 in1022.0 mb 0.00 in0.0 mm 0.00 in0.0 mm 0.00 in0.0 mm
08:19 PM 68.0°F20.0°C 96.8°F36.0°C - 12.5 mph NNE20.1 kmh NNE 15.3 mph24.6 kmh 30.18 in1022.0 mb 0.00 in0.0 mm 0.00 in0.0 mm 0.00 in0.0 mm
08:24 PM 67.9°F19.9°C 96.7°F35.9°C - 11.4 mph NNE18.3 kmh NNE 15.9 mph25.6 kmh 30.18 in1022.0 mb 0.00 in0.0 mm 0.00 in0.0 mm 0.00 in0.0 mm
08:29 PM 67.9°F19.9°C 96.8°F36.0°C - 9.9 mph NNE15.9 kmh NNE 14.1 mph22.7 kmh 30.18 in1022.0 mb 0.00 in0.0 mm 0.00 in0.0 mm 0.00 in0.0 mm
08:34 PM 67.9°F19.9°C 96.8°F36.0°C - 11.4 mph NNE18.3 kmh NNE 14.5 mph23.3 kmh 30.18 in1022.0 mb 0.00 in0.0 mm 0.00 in0.0 mm 0.00 in0.0 mm
08:39 PM 67.7°F19.8°C 96.5°F35.8°C - 9.5 mph NNE15.3 kmh NNE 14.1 mph22.7 kmh 30.18 in1022.0 mb 0.00 in0.0 mm 0.00 in0.0 mm 0.00 in0.0 mm
08:44 PM 67.7°F19.8°C 96.5°F35.8°C - 11.4 mph N18.3 kmh N 14.0 mph22.5 kmh 30.18 in1022.0 mb 0.00 in0.0 mm 0.00 in0.0 mm 0.00 in0.0 mm
08:49 PM 67.7°F19.8°C 96.6°F35.9°C - 3.4 mph N5.5 kmh N 10.5 mph16.9 kmh 30.18 in1022.0 mb 0.00 in0.0 mm 0.00 in0.0 mm 0.00 in0.0 mm
08:54 PM 67.7°F19.8°C 96.6°F35.9°C - 2.1 mph N3.4 kmh N 10.5 mph16.9 kmh 30.18 in1022.0 mb 0.00 in0.0 mm 0.00 in0.0 mm 0.00 in0.0 mm
08:59 PM 67.6°F19.8°C 96.4°F35.8°C - 4.8 mph N7.7 kmh N 10.6 mph17.1 kmh 30.19 in1022.4 mb 0.00 in0.0 mm 0.00 in0.0 mm 0.00 in0.0 mm
09:04 PM 67.5°F19.7°C 96.4°F35.8°C - 9.5 mph N15.3 kmh N 16.4 mph26.4 kmh 30.19 in1022.4 mb 0.00 in0.0 mm 0.00 in0.0 mm 0.00 in0.0 mm
09:09 PM 67.3°F19.6°C 96.2°F35.7°C - 8.6 mph N13.8 kmh N 12.8 mph20.6 kmh 30.19 in1022.4 mb 0.00 in0.0 mm 0.00 in0.0 mm 0.00 in0.0 mm
09:14 PM 67.2°F19.6°C 96.1°F35.6°C - Calm Calm 0.4 mph0.6 kmh 30.19 in1022.4 mb 0.00 in0.0 mm 0.00 in0.0 mm 0.00 in0.0 mm
09:19 PM 67.2°F19.6°C 96.1°F35.6°C - 1.9 mph N3.1 kmh N 8.0 mph12.9 kmh 30.19 in1022.4 mb 0.00 in0.0 mm 0.00 in0.0 mm 0.00 in0.0 mm
09:24 PM 67.2°F19.6°C 96.1°F35.6°C - 1.5 mph NNE2.4 kmh NNE 5.6 mph9.0 kmh 30.19 in1022.4 mb 0.00 in0.0 mm 0.00 in0.0 mm 0.00 in0.0 mm
09:29 PM 67.2°F19.6°C 96.1°F35.6°C - 1.4 mph NNE2.3 kmh NNE 8.2 mph13.2 kmh 30.19 in1022.4 mb 0.00 in0.0 mm 0.00 in0.0 mm 0.00 in0.0 mm
09:34 PM 67.2°F19.6°C 96.1°F35.6°C - 4.3 mph N6.9 kmh N 7.6 mph12.2 kmh 30.19 in1022.4 mb 0.00 in0.0 mm 0.00 in0.0 mm 0.00 in0.0 mm
09:39 PM 67.0°F19.4°C 95.7°F35.4°C - 5.2 mph N8.4 kmh N 13.5 mph21.7 kmh 30.19 in1022.4 mb 0.00 in0.0 mm 0.00 in0.0 mm 0.00 in0.0 mm
09:44 PM 67.0°F19.4°C 95.8°F35.4°C - 2.6 mph NNE4.2 kmh NNE 12.6 mph20.3 kmh 30.19 in1022.4 mb 0.00 in0.0 mm 0.00 in0.0 mm 0.00 in0.0 mm
09:49 PM 67.0°F19.4°C 95.8°F35.4°C - 2.2 mph N3.5 kmh N 7.4 mph11.9 kmh 30.19 in1022.4 mb 0.00 in0.0 mm 0.00 in0.0 mm 0.00 in0.0 mm
09:54 PM 67.1°F19.5°C 95.8°F35.4°C - 6.0 mph N9.7 kmh N 10.7 mph17.2 kmh 30.19 in1022.4 mb 0.00 in0.0 mm 0.00 in0.0 mm 0.00 in0.0 mm
09:59 PM 67.1°F19.5°C 95.9°F35.5°C - 2.1 mph N3.4 kmh N 8.2 mph13.2 kmh 30.19 in1022.4 mb 0.00 in0.0 mm 0.00 in0.0 mm 0.00 in0.0 mm
10:04 PM 67.1°F19.5°C 95.9°F35.5°C - 2.6 mph N4.2 kmh N 7.2 mph11.6 kmh 30.19 in1022.4 mb 0.00 in0.0 mm 0.00 in0.0 mm 0.00 in0.0 mm
10:09 PM 67.2°F19.6°C 96.1°F35.6°C - 2.4 mph N3.9 kmh N 7.2 mph11.6 kmh 30.19 in1022.4 mb 0.00 in0.0 mm 0.00 in0.0 mm 0.00 in0.0 mm
10:14 PM 67.4°F19.7°C 96.3°F35.7°C - 3.7 mph N6.0 kmh N 8.8 mph14.2 kmh 30.19 in1022.4 mb 0.00 in0.0 mm 0.00 in0.0 mm 0.00 in0.0 mm
10:19 PM 67.4°F19.7°C 96.3°F35.7°C - 3.1 mph N5.0 kmh N 10.0 mph16.1 kmh 30.20 in1022.7 mb 0.00 in0.0 mm 0.00 in0.0 mm 0.00 in0.0 mm
10:24 PM 67.4°F19.7°C 96.3°F35.7°C - 5.6 mph N9.0 kmh N 9.1 mph14.6 kmh 30.20 in1022.7 mb 0.00 in0.0 mm 0.00 in0.0 mm 0.00 in0.0 mm
10:29 PM 67.4°F19.7°C 96.3°F35.7°C - 1.8 mph N2.9 kmh N 9.3 mph15.0 kmh 30.19 in1022.4 mb 0.00 in0.0 mm 0.00 in0.0 mm 0.00 in0.0 mm
10:34 PM 67.2°F19.6°C 95.9°F35.5°C - Calm Calm -- 30.19 in1022.4 mb 0.00 in0.0 mm 0.00 in0.0 mm 0.00 in0.0 mm
10:39 PM 67.2°F19.6°C 96.1°F35.6°C - 0.2 mph N0.3 kmh N 3.4 mph5.5 kmh 30.20 in1022.7 mb 0.00 in0.0 mm 0.00 in0.0 mm 0.00 in0.0 mm
10:44 PM 67.0°F19.4°C 95.8°F35.4°C - Calm Calm 0.7 mph1.1 kmh 30.19 in1022.4 mb 0.00 in0.0 mm 0.00 in0.0 mm 0.00 in0.0 mm
10:49 PM 67.0°F19.4°C 95.8°F35.4°C - Calm Calm -- 30.19 in1022.4 mb 0.00 in0.0 mm 0.00 in0.0 mm 0.00 in0.0 mm
10:54 PM 67.0°F19.4°C 95.8°F35.4°C - Calm Calm -- 30.19 in1022.4 mb 0.00 in0.0 mm 0.00 in0.0 mm 0.00 in0.0 mm
11:04 PM 67.0°F19.4°C 95.7°F35.4°C - Calm Calm -- 30.19 in1022.4 mb 0.00 in0.0 mm 0.00 in0.0 mm 0.00 in0.0 mm
11:09 PM 67.0°F19.4°C 95.8°F35.4°C - Calm Calm -- 30.19 in1022.4 mb 0.00 in0.0 mm 0.00 in0.0 mm 0.00 in0.0 mm
11:14 PM 67.0°F19.4°C 95.8°F35.4°C - Calm Calm -- 30.19 in1022.4 mb 0.00 in0.0 mm 0.00 in0.0 mm 0.00 in0.0 mm
11:19 PM 67.0°F19.4°C 95.8°F35.4°C - Calm Calm -- 30.19 in1022.4 mb 0.00 in0.0 mm 0.00 in0.0 mm 0.00 in0.0 mm
11:24 PM 66.9°F19.4°C 95.6°F35.3°C - Calm Calm -- 30.19 in1022.4 mb 0.00 in0.0 mm 0.00 in0.0 mm 0.00 in0.0 mm
11:29 PM 66.7°F19.3°C 95.4°F35.2°C - Calm Calm -- 30.19 in1022.4 mb 0.00 in0.0 mm 0.00 in0.0 mm 0.00 in0.0 mm
11:34 PM 66.7°F19.3°C 95.5°F35.3°C - Calm Calm -- 30.19 in1022.4 mb 0.00 in0.0 mm 0.00 in0.0 mm 0.00 in0.0 mm
11:39 PM 66.9°F19.4°C 95.7°F35.4°C - Calm Calm -- 30.19 in1022.4 mb 0.00 in0.0 mm 0.00 in0.0 mm 0.00 in0.0 mm
11:44 PM 66.9°F19.4°C 95.6°F35.3°C - Calm Calm 0.8 mph1.3 kmh 30.19 in1022.4 mb 0.00 in0.0 mm 0.00 in0.0 mm 0.00 in0.0 mm
11:49 PM 66.8°F19.3°C 95.6°F35.3°C - Calm Calm -- 30.19 in1022.4 mb 0.00 in0.0 mm 0.00 in0.0 mm 0.00 in0.0 mm
11:54 PM 66.9°F19.4°C 95.6°F35.3°C - 0.1 mph NNE0.2 kmh NNE 2.0 mph3.2 kmh 30.19 in1022.4 mb 0.00 in0.0 mm 0.00 in0.0 mm 0.00 in0.0 mm
11:59 PM 66.8°F19.3°C 95.5°F35.3°C - Calm Calm -- 30.19 in1022.4 mb 0.00 in0.0 mm 0.00 in0.0 mm 0.00 in0.0 mm